createdAt,value
2023-05-19T00:01:15.110Z,56.61
2023-05-19T00:03:52.630Z,56.62
2023-05-19T00:06:25.071Z,56.70
2023-05-19T00:08:57.792Z,56.71
2023-05-19T00:11:26.470Z,56.75
2023-05-19T00:13:58.387Z,56.83
2023-05-19T00:16:26.468Z,56.57
2023-05-19T00:18:54.112Z,56.65
2023-05-19T00:21:21.243Z,56.44
2023-05-19T00:23:47.851Z,56.55
2023-05-19T00:26:15.575Z,56.72
2023-05-19T00:28:42.037Z,56.67
2023-05-19T00:31:08.462Z,56.64
2023-05-19T00:33:34.903Z,56.63
2023-05-19T00:36:05.690Z,56.80
2023-05-19T00:38:34.661Z,56.83
2023-05-19T00:41:02.270Z,56.65
2023-05-19T00:43:30.196Z,56.77
2023-05-19T00:45:57.464Z,56.82
2023-05-19T00:48:25.679Z,57.01
2023-05-19T00:50:54.725Z,57.32
2023-05-19T00:53:23.064Z,57.40
2023-05-19T00:55:50.442Z,57.48
2023-05-19T00:58:18.623Z,57.32
2023-05-19T01:00:45.774Z,57.63
2023-05-19T01:03:12.425Z,57.54
2023-05-19T01:05:41.638Z,57.50
2023-05-19T01:08:09.101Z,57.50
2023-05-19T01:10:35.880Z,57.54
2023-05-19T01:13:04.599Z,57.58
2023-05-19T01:15:37.727Z,57.51
2023-05-19T01:18:19.522Z,57.54
2023-05-19T01:20:59.273Z,57.40
2023-05-19T01:23:38.034Z,57.81
2023-05-19T01:26:28.807Z,57.79
2023-05-19T01:29:13.923Z,57.93
2023-05-19T01:31:42.616Z,57.86
2023-05-19T01:34:12.136Z,58.06
2023-05-19T01:36:41.246Z,58.13
2023-05-19T01:39:08.065Z,58.24
2023-05-19T01:41:35.012Z,57.88
2023-05-19T01:44:02.424Z,58.20
2023-05-19T01:46:28.956Z,58.20
2023-05-19T01:48:56.139Z,58.36
2023-05-19T01:51:22.620Z,58.52
2023-05-19T01:53:49.145Z,58.55
2023-05-19T01:56:22.107Z,58.59
2023-05-19T01:58:56.900Z,58.94
2023-05-19T02:01:46.490Z,58.99
2023-05-19T02:04:35.817Z,59.07
2023-05-19T02:07:12.384Z,59.44
2023-05-19T02:10:04.717Z,59.61
2023-05-19T02:12:40.744Z,59.80
2023-05-19T02:15:14.430Z,59.86
2023-05-19T02:17:47.652Z,60.08
2023-05-19T02:20:15.554Z,60.44
2023-05-19T02:22:42.067Z,60.42
2023-05-19T02:25:09.442Z,60.72
2023-05-19T02:27:36.854Z,60.82
2023-05-19T02:30:08.334Z,61.01
2023-05-19T02:32:36.341Z,60.76
2023-05-19T02:35:03.953Z,60.94
2023-05-19T02:37:31.130Z,60.87
2023-05-19T02:39:57.708Z,60.83
2023-05-19T02:42:24.248Z,60.76
2023-05-19T02:44:50.777Z,61.01
2023-05-19T02:47:17.223Z,61.23
2023-05-19T02:49:44.244Z,61.50
2023-05-19T02:52:12.023Z,61.62
2023-05-19T02:54:38.535Z,61.85
2023-05-19T02:57:05.377Z,61.80
2023-05-19T02:59:32.118Z,61.85
2023-05-19T03:02:02.282Z,61.85
2023-05-19T03:04:29.847Z,62.29
2023-05-19T03:06:57.340Z,62.27
2023-05-19T03:09:23.964Z,62.57
2023-05-19T03:11:50.413Z,62.48
2023-05-19T03:14:18.537Z,62.67
2023-05-19T03:16:45.212Z,62.89
2023-05-19T03:19:12.101Z,62.92
2023-05-19T03:21:38.503Z,63.09
2023-05-19T03:24:05.291Z,63.09
2023-05-19T03:26:31.677Z,63.15
2023-05-19T03:28:58.215Z,63.33
2023-05-19T03:31:24.716Z,63.48
2023-05-19T03:33:51.176Z,63.45
2023-05-19T03:36:17.863Z,63.41
2023-05-19T03:38:44.312Z,63.37
2023-05-19T03:41:10.717Z,63.64
2023-05-19T03:43:37.183Z,63.56
2023-05-19T03:46:03.823Z,63.46
2023-05-19T03:48:30.402Z,63.75
2023-05-19T03:50:57.901Z,63.83
2023-05-19T03:53:24.379Z,63.37
2023-05-19T03:55:50.994Z,63.74
2023-05-19T03:58:17.416Z,63.68
2023-05-19T04:00:43.890Z,63.75
2023-05-19T04:03:10.785Z,63.96
2023-05-19T04:05:37.421Z,63.92
2023-05-19T04:08:03.944Z,63.91
2023-05-19T04:10:30.957Z,64.01
2023-05-19T04:12:57.559Z,64.06
2023-05-19T04:15:24.350Z,64.17
2023-05-19T04:17:50.922Z,64.07
2023-05-19T04:20:17.471Z,64.04
2023-05-19T04:22:43.965Z,64.08
2023-05-19T04:25:10.452Z,64.04
2023-05-19T04:27:38.983Z,64.25
2023-05-19T04:30:06.488Z,64.06
2023-05-19T04:32:33.204Z,64.21
2023-05-19T04:34:59.902Z,64.25
2023-05-19T04:37:26.593Z,64.31
2023-05-19T04:39:54.233Z,64.20
2023-05-19T04:42:21.001Z,64.41
2023-05-19T04:44:49.423Z,64.42
2023-05-19T04:47:16.186Z,64.36
2023-05-19T04:49:42.978Z,64.21
2023-05-19T04:52:10.929Z,64.20
2023-05-19T04:54:38.889Z,63.98
2023-05-19T04:57:05.938Z,64.05
2023-05-19T04:59:33.040Z,63.88
2023-05-19T05:01:59.707Z,64.11
2023-05-19T05:04:26.215Z,63.82
2023-05-19T05:06:52.630Z,63.71
2023-05-19T05:09:19.997Z,63.57
2023-05-19T05:11:46.879Z,63.31
2023-05-19T05:14:13.683Z,63.24
2023-05-19T05:16:40.769Z,63.08
2023-05-19T05:19:07.616Z,63.48
2023-05-19T05:21:34.700Z,63.07
2023-05-19T05:24:01.462Z,62.94
2023-05-19T05:26:31.553Z,62.68
2023-05-19T05:28:58.064Z,62.59
2023-05-19T05:31:24.599Z,62.83
2023-05-19T05:33:51.162Z,62.82
2023-05-19T05:36:17.724Z,62.85
2023-05-19T05:38:44.255Z,62.50
2023-05-19T05:41:10.793Z,62.30
2023-05-19T05:43:37.226Z,61.94
2023-05-19T05:46:03.835Z,61.66
2023-05-19T05:48:30.603Z,61.29
2023-05-19T05:50:58.009Z,61.25
2023-05-19T05:53:26.657Z,61.66
2023-05-19T05:55:53.593Z,61.26
2023-05-19T05:58:22.305Z,61.16
2023-05-19T06:00:49.312Z,60.86
2023-05-19T06:03:16.903Z,60.84
2023-05-19T06:05:43.527Z,60.53
2023-05-19T06:08:10.036Z,60.40
2023-05-19T06:10:38.651Z,60.23
2023-05-19T06:13:05.248Z,59.94
2023-05-19T06:15:31.767Z,59.50
2023-05-19T06:17:58.925Z,59.01
2023-05-19T06:20:25.409Z,58.75
2023-05-19T06:22:53.058Z,58.68
2023-05-19T06:25:20.576Z,58.70
2023-05-19T06:27:47.146Z,58.24
2023-05-19T06:30:13.895Z,58.13
2023-05-19T06:32:40.617Z,57.88
2023-05-19T06:35:07.592Z,57.81
2023-05-19T06:37:34.019Z,57.67
2023-05-19T06:40:00.541Z,57.38
2023-05-19T06:42:27.030Z,57.40
2023-05-19T06:44:53.537Z,57.88
2023-05-19T06:47:21.874Z,58.01
2023-05-19T06:49:51.872Z,57.88
2023-05-19T06:52:20.059Z,57.74
2023-05-19T06:54:46.465Z,57.60
2023-05-19T06:57:12.957Z,57.76
2023-05-19T06:59:41.173Z,57.85
2023-05-19T07:02:08.139Z,57.15
2023-05-19T07:04:36.223Z,56.58
2023-05-19T07:07:03.246Z,56.51
2023-05-19T07:09:29.704Z,56.79
2023-05-19T07:11:56.448Z,57.04
2023-05-19T07:14:23.380Z,57.27
2023-05-19T07:16:49.942Z,57.60
2023-05-19T07:19:16.627Z,57.60
2023-05-19T07:21:43.427Z,57.50
2023-05-19T07:24:09.895Z,57.75
2023-05-19T07:26:36.397Z,57.68
2023-05-19T07:29:03.984Z,57.66
2023-05-19T07:31:30.617Z,57.61
2023-05-19T07:33:57.245Z,57.77
2023-05-19T07:36:23.804Z,57.87
2023-05-19T07:38:50.442Z,57.94
2023-05-19T07:41:16.961Z,57.90
2023-05-19T07:43:43.506Z,57.69
2023-05-19T07:46:10.049Z,57.65
2023-05-19T07:48:37.347Z,57.41
2023-05-19T07:51:03.976Z,57.43
2023-05-19T07:53:30.785Z,57.32
2023-05-19T07:55:58.681Z,57.17
2023-05-19T07:58:25.669Z,57.10
2023-05-19T08:00:53.299Z,57.01
2023-05-19T08:03:20.870Z,57.31
2023-05-19T08:05:47.650Z,57.19
2023-05-19T08:08:16.722Z,57.54
2023-05-19T08:10:44.545Z,57.56
2023-05-19T08:13:11.005Z,57.85
2023-05-19T08:15:37.799Z,57.93
2023-05-19T08:18:05.193Z,57.69
2023-05-19T08:20:32.690Z,57.87
2023-05-19T08:22:59.840Z,57.60
2023-05-19T08:25:26.272Z,57.43
2023-05-19T08:27:52.752Z,57.51
2023-05-19T08:30:19.495Z,57.40
2023-05-19T08:32:46.449Z,57.63
2023-05-19T08:35:12.967Z,57.48
2023-05-19T08:37:39.428Z,57.62
2023-05-19T08:40:07.148Z,57.21
2023-05-19T08:42:33.899Z,57.43
2023-05-19T08:45:01.616Z,57.28
2023-05-19T08:47:28.735Z,57.37
2023-05-19T08:50:07.783Z,57.10
2023-05-19T08:52:37.281Z,57.28
2023-05-19T08:55:17.081Z,57.08
2023-05-19T08:57:43.844Z,56.76
2023-05-19T09:00:12.285Z,56.71
2023-05-19T09:02:50.383Z,56.90
2023-05-19T09:05:26.448Z,56.80
2023-05-19T09:07:52.965Z,57.15
2023-05-19T09:10:19.666Z,57.00
2023-05-19T09:12:47.718Z,56.86
2023-05-19T09:15:18.767Z,57.05
2023-05-19T09:17:47.971Z,56.92
2023-05-19T09:20:16.772Z,57.03
2023-05-19T09:22:47.427Z,56.89
2023-05-19T09:25:23.969Z,56.96
2023-05-19T09:27:50.717Z,56.88
2023-05-19T09:30:19.213Z,57.21
2023-05-19T09:32:49.053Z,57.10
2023-05-19T09:35:21.194Z,57.19
2023-05-19T09:37:48.241Z,57.19
2023-05-19T09:40:15.794Z,57.20
2023-05-19T09:42:43.985Z,56.91
2023-05-19T09:45:13.198Z,56.94
2023-05-19T09:47:41.440Z,56.98
2023-05-19T09:50:10.255Z,56.63
2023-05-19T09:52:38.650Z,56.03
2023-05-19T09:55:08.830Z,56.14
2023-05-19T09:57:39.999Z,55.87
2023-05-19T10:00:17.861Z,55.63
2023-05-19T10:02:48.229Z,55.67
2023-05-19T10:05:20.479Z,55.74
2023-05-19T10:07:51.397Z,55.69
2023-05-19T10:10:20.754Z,56.10
2023-05-19T10:12:48.474Z,56.28
2023-05-19T10:15:29.509Z,56.42
2023-05-19T10:17:56.587Z,56.33
2023-05-19T10:20:23.206Z,56.26
2023-05-19T10:22:49.721Z,56.57
2023-05-19T10:25:18.611Z,56.37
2023-05-19T10:27:57.766Z,56.50
2023-05-19T10:30:32.336Z,56.56
2023-05-19T10:33:03.232Z,56.60
2023-05-19T10:35:57.669Z,56.39
2023-05-19T10:38:33.474Z,56.45
2023-05-19T10:41:12.930Z,56.15
2023-05-19T10:44:16.682Z,55.85
2023-05-19T10:46:43.319Z,55.72
2023-05-19T10:49:11.245Z,55.46
2023-05-19T10:51:37.864Z,55.11
2023-05-19T10:54:14.336Z,55.11
2023-05-19T10:56:47.162Z,55.21
2023-05-19T10:59:34.635Z,55.36
2023-05-19T11:02:05.426Z,55.79
2023-05-19T11:04:52.224Z,56.10
2023-05-19T11:07:21.531Z,56.27
2023-05-19T11:09:54.591Z,56.02
2023-05-19T11:12:24.754Z,56.11
2023-05-19T11:14:59.326Z,56.17
2023-05-19T11:17:27.432Z,55.69
2023-05-19T11:19:55.227Z,55.33
2023-05-19T11:22:28.230Z,55.32
2023-05-19T11:24:55.565Z,55.38
2023-05-19T11:27:38.170Z,55.34
2023-05-19T11:30:09.343Z,55.52
2023-05-19T11:32:39.677Z,56.13
2023-05-19T11:35:07.875Z,56.20
2023-05-19T11:37:34.948Z,56.25
2023-05-19T11:40:02.444Z,56.34
2023-05-19T11:42:29.000Z,56.17
2023-05-19T11:44:56.184Z,56.06
2023-05-19T11:47:22.820Z,56.20
2023-05-19T11:49:51.851Z,56.14
2023-05-19T11:52:22.122Z,56.04
2023-05-19T11:54:49.148Z,55.73
2023-05-19T11:57:15.788Z,55.43
2023-05-19T11:59:46.955Z,55.54
2023-05-19T12:02:16.421Z,55.33
2023-05-19T12:04:43.401Z,55.28
2023-05-19T12:07:12.143Z,55.18
2023-05-19T12:09:38.718Z,54.90
2023-05-19T12:12:05.740Z,55.08
2023-05-19T12:14:32.291Z,54.55
2023-05-19T12:16:59.382Z,54.60
2023-05-19T12:19:26.486Z,54.58
2023-05-19T12:21:53.956Z,54.80
2023-05-19T12:24:21.777Z,55.28
2023-05-19T12:26:50.212Z,55.03
2023-05-19T12:29:16.717Z,55.40
2023-05-19T12:31:46.758Z,55.60
2023-05-19T12:34:13.330Z,55.59
2023-05-19T12:36:43.115Z,55.58
2023-05-19T12:39:09.726Z,55.81
2023-05-19T12:41:36.185Z,56.09
2023-05-19T12:44:14.396Z,56.17
2023-05-19T12:46:40.906Z,56.32
2023-05-19T12:49:07.425Z,56.52
2023-05-19T12:51:34.029Z,56.45
2023-05-19T12:54:03.339Z,56.37
2023-05-19T12:56:29.824Z,56.30
2023-05-19T12:58:56.502Z,56.25
2023-05-19T13:01:24.109Z,56.17
2023-05-19T13:03:51.063Z,56.35
2023-05-19T13:06:17.883Z,56.18
2023-05-19T13:08:47.334Z,56.10
2023-05-19T13:11:13.919Z,56.08
2023-05-19T13:13:40.396Z,56.17
2023-05-19T13:16:07.029Z,55.99
2023-05-19T13:18:35.349Z,56.23
2023-05-19T13:21:01.833Z,56.22
2023-05-19T13:23:28.277Z,56.29
2023-05-19T13:25:54.830Z,56.52
2023-05-19T13:28:21.418Z,56.48
2023-05-19T13:30:49.510Z,56.75
2023-05-19T13:33:16.119Z,56.70
2023-05-19T13:35:42.649Z,56.89
2023-05-19T13:38:10.648Z,56.91
2023-05-19T13:40:38.114Z,56.83
2023-05-19T13:43:04.921Z,56.93
2023-05-19T13:45:31.507Z,56.79
2023-05-19T13:47:58.252Z,56.96
2023-05-19T13:50:24.847Z,56.98
2023-05-19T13:52:51.256Z,56.75
2023-05-19T13:55:17.933Z,56.61
2023-05-19T13:57:44.907Z,56.65
2023-05-19T14:00:11.754Z,56.22
2023-05-19T14:02:38.330Z,56.01
2023-05-19T14:05:06.126Z,55.97
2023-05-19T14:07:34.722Z,55.71
2023-05-19T14:10:02.574Z,55.48
2023-05-19T14:12:38.134Z,55.50
2023-05-19T14:15:14.134Z,55.65
2023-05-19T14:17:40.630Z,55.64
2023-05-19T14:20:07.745Z,55.45
2023-05-19T14:22:34.248Z,55.31
2023-05-19T14:25:01.688Z,55.42
2023-05-19T14:27:28.260Z,55.37
2023-05-19T14:29:54.716Z,55.43
2023-05-19T14:32:21.735Z,55.63
2023-05-19T14:34:48.333Z,55.72
2023-05-19T14:37:14.818Z,56.09
2023-05-19T14:39:41.403Z,56.06
2023-05-19T14:42:09.365Z,56.05
2023-05-19T14:44:37.501Z,56.33
2023-05-19T14:47:04.292Z,56.07
2023-05-19T14:49:30.810Z,55.91
2023-05-19T14:51:58.322Z,56.08
2023-05-19T14:54:24.899Z,55.90
2023-05-19T14:56:51.634Z,55.92
2023-05-19T14:59:18.091Z,55.96
2023-05-19T15:01:44.782Z,56.01
2023-05-19T15:04:11.533Z,56.29
2023-05-19T15:06:38.588Z,56.23
2023-05-19T15:09:05.455Z,56.33
2023-05-19T15:11:33.834Z,56.23
2023-05-19T15:14:02.827Z,56.09
2023-05-19T15:16:29.498Z,56.21
2023-05-19T15:18:56.162Z,55.95
2023-05-19T15:21:22.673Z,55.97
2023-05-19T15:23:49.185Z,55.99
2023-05-19T15:26:15.855Z,56.12
2023-05-19T15:28:42.468Z,56.09
2023-05-19T15:31:08.943Z,56.20
2023-05-19T15:33:38.499Z,56.12
2023-05-19T15:36:05.370Z,55.94
2023-05-19T15:38:35.825Z,56.10
2023-05-19T15:41:06.441Z,55.81
2023-05-19T15:43:33.087Z,55.65
2023-05-19T15:46:00.651Z,55.84
2023-05-19T15:48:28.908Z,55.73
2023-05-19T15:50:58.013Z,55.72
2023-05-19T15:53:25.107Z,56.07
2023-05-19T15:55:51.731Z,55.96
2023-05-19T15:58:18.408Z,56.00
2023-05-19T16:00:46.384Z,55.94
2023-05-19T16:03:12.985Z,56.13
2023-05-19T16:05:39.573Z,56.04
2023-05-19T16:08:08.510Z,56.25
2023-05-19T16:10:35.516Z,56.13
2023-05-19T16:13:03.236Z,56.33
2023-05-19T16:15:29.747Z,56.19
2023-05-19T16:17:56.834Z,56.30
2023-05-19T16:20:26.739Z,56.32
2023-05-19T16:22:53.415Z,56.15
2023-05-19T16:25:20.200Z,56.24
2023-05-19T16:27:46.751Z,55.97
2023-05-19T16:30:13.525Z,56.07
2023-05-19T16:32:40.122Z,55.81
2023-05-19T16:35:07.271Z,55.81
2023-05-19T16:37:34.707Z,55.68
2023-05-19T16:40:01.338Z,55.77
2023-05-19T16:42:28.321Z,55.94
2023-05-19T16:44:54.829Z,55.70
2023-05-19T16:47:21.299Z,55.95
2023-05-19T16:49:47.839Z,55.98
2023-05-19T16:52:14.274Z,55.82
2023-05-19T16:54:40.889Z,55.57
2023-05-19T16:57:07.395Z,55.07
2023-05-19T16:59:33.830Z,54.47
2023-05-19T17:02:00.300Z,52.45
2023-05-19T17:04:28.669Z,50.53
2023-05-19T17:06:57.069Z,48.93
2023-05-19T17:09:25.849Z,49.74
2023-05-19T17:11:53.589Z,51.01
2023-05-19T17:14:20.950Z,51.71
2023-05-19T17:16:47.827Z,52.64
2023-05-19T17:19:14.544Z,53.53
2023-05-19T17:21:41.517Z,54.20
2023-05-19T17:24:07.994Z,54.41
2023-05-19T17:26:34.516Z,54.34
2023-05-19T17:29:02.441Z,54.16
2023-05-19T17:31:30.419Z,53.87
2023-05-19T17:33:56.836Z,54.04
2023-05-19T17:36:23.355Z,53.58
2023-05-19T17:38:49.903Z,53.26
2023-05-19T17:41:17.065Z,52.78
2023-05-19T17:43:43.702Z,52.11
2023-05-19T17:46:10.379Z,52.86
2023-05-19T17:48:36.851Z,53.97
2023-05-19T17:51:05.111Z,54.78
2023-05-19T17:53:32.763Z,55.70
2023-05-19T17:56:02.508Z,55.87
2023-05-19T17:58:29.717Z,56.08
2023-05-19T18:00:56.771Z,56.45
2023-05-19T18:03:23.796Z,56.76
2023-05-19T18:05:51.092Z,57.00
2023-05-19T18:08:18.079Z,57.15
2023-05-19T18:10:46.075Z,57.60
2023-05-19T18:13:15.700Z,57.61
2023-05-19T18:15:42.780Z,57.97
2023-05-19T18:18:10.786Z,58.18
2023-05-19T18:20:44.119Z,58.47
2023-05-19T18:23:10.619Z,58.58
2023-05-19T18:25:37.363Z,58.72
2023-05-19T18:28:03.989Z,58.79
2023-05-19T18:30:30.549Z,58.87
2023-05-19T18:32:57.585Z,58.95
2023-05-19T18:35:24.096Z,59.30
2023-05-19T18:37:50.769Z,59.47
2023-05-19T18:40:18.453Z,59.56
2023-05-19T18:42:44.931Z,59.72
2023-05-19T18:45:11.771Z,60.09
2023-05-19T18:47:38.353Z,60.17
2023-05-19T18:50:05.885Z,60.59
2023-05-19T18:52:32.403Z,60.53
2023-05-19T18:55:00.779Z,60.88
2023-05-19T18:57:27.295Z,61.05
2023-05-19T18:59:53.879Z,61.23
2023-05-19T19:02:20.634Z,61.42
2023-05-19T19:04:47.172Z,61.44
2023-05-19T19:07:14.480Z,61.63
2023-05-19T19:09:43.518Z,61.81
2023-05-19T19:12:10.805Z,61.73
2023-05-19T19:14:37.348Z,62.08
2023-05-19T19:17:03.971Z,62.03
2023-05-19T19:19:33.673Z,62.12
2023-05-19T19:22:00.270Z,62.37
2023-05-19T19:24:28.484Z,62.47
2023-05-19T19:26:55.058Z,62.37
2023-05-19T19:29:21.885Z,62.55
2023-05-19T19:31:48.611Z,62.57
2023-05-19T19:34:15.138Z,62.36
2023-05-19T19:36:42.968Z,62.54
2023-05-19T19:39:09.503Z,62.52
2023-05-19T19:41:36.593Z,62.25
2023-05-19T19:44:03.269Z,62.35
2023-05-19T19:46:30.361Z,62.39
2023-05-19T19:49:00.325Z,62.60
2023-05-19T19:51:27.802Z,62.61
2023-05-19T19:53:55.143Z,62.75
2023-05-19T19:56:24.508Z,62.93
2023-05-19T19:58:51.205Z,63.08
2023-05-19T20:01:20.333Z,63.00
2023-05-19T20:03:47.319Z,63.38
2023-05-19T20:06:14.210Z,63.33
2023-05-19T20:08:40.730Z,63.33
2023-05-19T20:11:07.345Z,63.46
2023-05-19T20:13:33.835Z,63.69
2023-05-19T20:16:00.981Z,63.72
2023-05-19T20:18:29.630Z,63.80
2023-05-19T20:20:56.771Z,63.95
2023-05-19T20:23:23.243Z,64.14
2023-05-19T20:26:09.196Z,64.15
2023-05-19T20:28:36.388Z,64.18
2023-05-19T20:31:03.872Z,64.15
2023-05-19T20:33:31.660Z,64.34
2023-05-19T20:35:58.181Z,64.44
2023-05-19T20:38:24.693Z,64.54
2023-05-19T20:40:51.169Z,64.64
2023-05-19T20:43:17.702Z,64.43
2023-05-19T20:45:44.861Z,64.80
2023-05-19T20:48:11.873Z,64.44
2023-05-19T20:50:39.299Z,64.68
2023-05-19T20:53:07.287Z,64.62
2023-05-19T20:55:36.096Z,64.68
2023-05-19T20:58:02.753Z,64.75
2023-05-19T21:00:30.618Z,64.98
2023-05-19T21:02:57.486Z,65.05
2023-05-19T21:05:24.276Z,65.22
2023-05-19T21:07:50.846Z,65.18
2023-05-19T21:10:17.871Z,65.38
2023-05-19T21:12:44.420Z,65.24
2023-05-19T21:15:11.464Z,65.57
2023-05-19T21:17:38.108Z,65.54
2023-05-19T21:20:05.619Z,65.72
2023-05-19T21:22:32.138Z,65.61
2023-05-19T21:24:58.578Z,65.81
2023-05-19T21:27:25.141Z,65.81
2023-05-19T21:29:54.439Z,65.75
2023-05-19T21:32:21.408Z,65.98
2023-05-19T21:34:47.982Z,65.95
2023-05-19T21:37:16.302Z,66.16
2023-05-19T21:39:43.277Z,65.99
2023-05-19T21:42:09.728Z,65.82
2023-05-19T21:44:36.349Z,66.13
2023-05-19T21:47:02.958Z,66.32
2023-05-19T21:49:29.789Z,66.40
2023-05-19T21:51:56.391Z,66.63
2023-05-19T21:54:22.890Z,66.76
2023-05-19T21:56:49.687Z,66.73
2023-05-19T21:59:16.156Z,66.91
2023-05-19T22:01:42.707Z,67.12
2023-05-19T22:04:10.205Z,67.65
2023-05-19T22:06:37.001Z,67.69
2023-05-19T22:09:04.346Z,67.78
2023-05-19T22:11:30.859Z,67.90
2023-05-19T22:13:57.337Z,68.10
2023-05-19T22:16:23.989Z,68.29
2023-05-19T22:18:50.571Z,68.34
2023-05-19T22:21:17.076Z,68.54
2023-05-19T22:23:43.972Z,68.80
2023-05-19T22:26:10.527Z,68.65
2023-05-19T22:28:36.947Z,68.87
2023-05-19T22:31:03.464Z,68.86
2023-05-19T22:33:29.904Z,69.13
2023-05-19T22:35:56.386Z,69.28
2023-05-19T22:38:22.793Z,69.47
2023-05-19T22:40:49.954Z,69.52
2023-05-19T22:43:16.421Z,69.69
2023-05-19T22:45:43.026Z,69.77
2023-05-19T22:48:09.472Z,69.90
2023-05-19T22:50:36.021Z,70.06
2023-05-19T22:53:02.508Z,70.15
2023-05-19T22:55:29.104Z,70.12
2023-05-19T22:57:56.238Z,70.31
2023-05-19T23:00:22.908Z,70.13
2023-05-19T23:02:49.460Z,70.43
2023-05-19T23:05:16.285Z,70.90
2023-05-19T23:07:42.901Z,70.47
2023-05-19T23:10:09.716Z,70.63
2023-05-19T23:12:36.266Z,70.80
2023-05-19T23:15:03.611Z,71.07
2023-05-19T23:17:30.057Z,71.06
2023-05-19T23:19:56.590Z,71.04
2023-05-19T23:22:23.133Z,71.03
2023-05-19T23:24:49.591Z,71.04
2023-05-19T23:27:16.348Z,71.10
2023-05-19T23:29:47.084Z,71.29
2023-05-19T23:32:13.546Z,71.26
2023-05-19T23:34:39.967Z,71.12
2023-05-19T23:37:06.578Z,71.30
2023-05-19T23:39:33.115Z,71.34
2023-05-19T23:41:59.588Z,71.45
2023-05-19T23:44:27.229Z,71.33
2023-05-19T23:46:53.735Z,71.49
2023-05-19T23:49:20.385Z,71.66
2023-05-19T23:51:47.160Z,71.76
2023-05-19T23:54:13.609Z,72.06
2023-05-19T23:56:40.077Z,72.21
2023-05-19T23:59:06.587Z,72.14
